createdAt,value
2017-02-24T00:00:11.926Z,19.9
2017-02-24T00:02:44.400Z,19.9
2017-02-24T00:05:16.886Z,19.9
2017-02-24T00:07:49.356Z,19.9
2017-02-24T00:10:22.268Z,20
2017-02-24T00:12:54.743Z,20
2017-02-24T00:15:27.235Z,19.9
2017-02-24T00:17:59.732Z,20
2017-02-24T00:20:32.222Z,19.9
2017-02-24T00:23:04.913Z,20
2017-02-24T00:25:37.825Z,20
2017-02-24T00:28:10.321Z,20
2017-02-24T00:30:42.853Z,20
2017-02-24T00:33:15.339Z,20
2017-02-24T00:35:47.829Z,20
2017-02-24T00:38:20.323Z,20
2017-02-24T00:40:52.809Z,20
2017-02-24T00:43:25.293Z,20
2017-02-24T00:45:57.756Z,20
2017-02-24T00:48:30.670Z,20
2017-02-24T00:51:03.783Z,20
2017-02-24T00:53:36.693Z,19.9
2017-02-24T00:56:09.180Z,19.9
2017-02-24T00:58:41.660Z,19.9
2017-02-24T01:01:14.174Z,19.9
2017-02-24T01:03:46.649Z,19.9
2017-02-24T01:06:19.143Z,20
2017-02-24T01:08:51.633Z,20
2017-02-24T01:11:24.152Z,20
2017-02-24T01:13:56.637Z,20
2017-02-24T01:16:29.117Z,20
2017-02-24T01:19:01.613Z,20
2017-02-24T01:21:34.530Z,20
2017-02-24T01:24:07.010Z,20
2017-02-24T01:26:39.923Z,20
2017-02-24T01:29:12.416Z,20
2017-02-24T01:31:44.919Z,20
2017-02-24T01:34:17.410Z,19.9
2017-02-24T01:36:49.899Z,20
2017-02-24T01:39:22.402Z,19.9
2017-02-24T01:41:54.861Z,19.9
2017-02-24T01:44:27.773Z,19.9
2017-02-24T01:47:00.711Z,19.9
2017-02-24T01:49:33.203Z,20
2017-02-24T01:52:05.713Z,19.9
2017-02-24T01:54:38.211Z,19.9
2017-02-24T01:57:10.734Z,20
2017-02-24T01:59:43.206Z,19.9
2017-02-24T02:02:15.698Z,19.9
2017-02-24T02:04:48.618Z,19.9
2017-02-24T02:07:21.093Z,20
2017-02-24T02:09:53.583Z,19.9
2017-02-24T02:12:26.072Z,19.9
2017-02-24T02:14:58.562Z,19.9
2017-02-24T02:17:31.038Z,19.9
2017-02-24T02:20:03.519Z,19.9
2017-02-24T02:22:36.042Z,19.9
2017-02-24T02:25:08.572Z,20
2017-02-24T02:27:41.927Z,19.9
2017-02-24T02:30:14.863Z,20
2017-02-24T02:32:47.336Z,19.9
2017-02-24T02:35:21.330Z,19.9
2017-02-24T02:37:53.817Z,19.9
2017-02-24T02:40:26.309Z,20
2017-02-24T02:42:59.199Z,20
2017-02-24T02:45:31.683Z,19.9
2017-02-24T02:48:04.171Z,19.9
2017-02-24T02:50:36.680Z,19.9
2017-02-24T02:53:09.175Z,19.9
2017-02-24T02:55:41.677Z,20
2017-02-24T02:58:14.164Z,20
2017-02-24T03:00:47.518Z,19.9
2017-02-24T03:03:20.828Z,20
2017-02-24T03:05:53.737Z,20
2017-02-24T03:08:26.229Z,20
2017-02-24T03:10:58.736Z,20
2017-02-24T03:13:31.646Z,20
2017-02-24T03:16:04.537Z,20
2017-02-24T03:18:37.034Z,20
2017-02-24T03:21:09.518Z,20
2017-02-24T03:23:42.850Z,20
2017-02-24T03:26:15.334Z,19.9
2017-02-24T03:28:47.832Z,19.9
2017-02-24T03:31:20.755Z,19.9
2017-02-24T03:33:53.242Z,19.9
2017-02-24T03:36:25.725Z,19.9
2017-02-24T03:38:58.218Z,19.9
2017-02-24T03:41:30.717Z,19.9
2017-02-24T03:44:03.208Z,19.9
2017-02-24T03:46:35.696Z,19.9
2017-02-24T03:49:08.603Z,19.9
2017-02-24T03:51:41.534Z,19.9
2017-02-24T03:54:14.032Z,19.9
2017-02-24T03:56:46.523Z,19.9
2017-02-24T03:59:19.057Z,19.9
2017-02-24T04:01:51.567Z,19.9
2017-02-24T04:04:24.069Z,19.9
2017-02-24T04:06:56.879Z,19.9
2017-02-24T04:09:29.786Z,19.9
2017-02-24T04:12:02.696Z,19.9
2017-02-24T04:14:35.185Z,19.9
2017-02-24T04:17:07.672Z,19.9
2017-02-24T04:19:40.158Z,19.9
2017-02-24T04:22:12.644Z,19.9
2017-02-24T04:24:45.150Z,19.9
2017-02-24T04:27:17.632Z,19.9
2017-02-24T04:29:50.124Z,19.9
2017-02-24T04:32:22.903Z,19.9
2017-02-24T04:34:55.491Z,19.9
2017-02-24T04:37:28.003Z,19.9
2017-02-24T04:40:00.490Z,19.9
2017-02-24T04:42:32.976Z,19.9
2017-02-24T04:45:05.477Z,19.9
2017-02-24T04:47:37.966Z,19.9
2017-02-24T04:50:10.650Z,19.9
2017-02-24T04:52:43.130Z,19.9
2017-02-24T04:55:15.609Z,19.9
2017-02-24T04:57:48.504Z,19.9
2017-02-24T05:00:21.420Z,19.9
2017-02-24T05:02:54.355Z,19.9
2017-02-24T05:05:27.295Z,19.9
2017-02-24T05:07:59.802Z,19.9
2017-02-24T05:10:32.306Z,19.9
2017-02-24T05:13:05.664Z,19.9
2017-02-24T05:15:38.602Z,19.9
2017-02-24T05:18:11.069Z,19.9
2017-02-24T05:20:43.579Z,19.9
2017-02-24T05:23:16.526Z,19.9
2017-02-24T05:25:49.023Z,19.9
2017-02-24T05:28:21.491Z,19.9
2017-02-24T05:30:53.988Z,19.9
2017-02-24T05:33:26.889Z,19.9
2017-02-24T05:35:59.381Z,19.9
2017-02-24T05:38:31.841Z,19.9
2017-02-24T05:41:04.325Z,19.9
2017-02-24T05:43:37.233Z,19.9
2017-02-24T05:46:10.138Z,19.9
2017-02-24T05:48:42.627Z,19.9
2017-02-24T05:51:15.145Z,19.9
2017-02-24T05:53:47.651Z,19.9
2017-02-24T05:56:20.589Z,19.9
2017-02-24T05:58:53.080Z,19.9
2017-02-24T06:01:25.997Z,19.9
2017-02-24T06:03:58.480Z,19.9
2017-02-24T06:06:30.977Z,19.9
2017-02-24T06:09:03.476Z,19.9
2017-02-24T06:11:36.008Z,19.9
2017-02-24T06:14:08.481Z,19.9
2017-02-24T06:16:41.400Z,19.9
2017-02-24T06:19:14.788Z,19.9
2017-02-24T06:21:47.702Z,19.9
2017-02-24T06:24:20.190Z,19.9
2017-02-24T06:26:52.696Z,19.9
2017-02-24T06:29:25.607Z,19.9
2017-02-24T06:31:58.508Z,19.9
2017-02-24T06:34:30.987Z,19.9
2017-02-24T06:37:03.926Z,19.9
2017-02-24T06:39:36.418Z,19.9
2017-02-24T06:42:08.932Z,19.9
2017-02-24T06:44:41.843Z,19.9
2017-02-24T06:47:14.324Z,19.9
2017-02-24T06:49:46.865Z,19.9
2017-02-24T06:52:58.640Z,19.9
2017-02-24T06:55:34.947Z,19.9
2017-02-24T06:58:07.743Z,19.9
2017-02-24T07:00:41.057Z,19.9
2017-02-24T07:03:14.550Z,19.9
2017-02-24T07:05:47.049Z,19.9
2017-02-24T07:08:19.554Z,19.8
2017-02-24T07:10:52.490Z,19.9
2017-02-24T07:13:25.011Z,19.8
2017-02-24T07:15:57.499Z,19.8
2017-02-24T07:18:30.019Z,19.8
2017-02-24T07:21:02.936Z,19.8
2017-02-24T07:23:36.398Z,19.8
2017-02-24T07:26:15.394Z,19.8
2017-02-24T07:28:47.974Z,19.8
2017-02-24T07:31:20.464Z,19.8
2017-02-24T07:33:53.287Z,19.8
2017-02-24T07:36:28.455Z,19.8
2017-02-24T07:39:01.892Z,19.8
2017-02-24T07:41:41.887Z,19.8
2017-02-24T07:44:17.416Z,19.8
2017-02-24T07:46:58.686Z,19.7
2017-02-24T07:49:39.232Z,19.7
2017-02-24T07:52:20.277Z,19.8
2017-02-24T07:54:53.213Z,19.8
2017-02-24T07:57:25.704Z,19.8
2017-02-24T07:59:58.206Z,19.8
2017-02-24T08:02:30.691Z,19.8
2017-02-24T08:05:03.186Z,19.8
2017-02-24T08:07:36.097Z,19.8
2017-02-24T08:10:08.589Z,19.8
2017-02-24T08:12:41.519Z,19.8
2017-02-24T08:15:14.009Z,19.8
2017-02-24T08:17:46.475Z,19.8
2017-02-24T08:20:18.978Z,19.8
2017-02-24T08:22:51.482Z,19.8
2017-02-24T08:25:23.957Z,19.8
2017-02-24T08:27:56.465Z,19.8
2017-02-24T08:30:29.363Z,19.8
2017-02-24T08:33:02.281Z,19.8
2017-02-24T08:35:34.775Z,19.8
2017-02-24T08:38:07.550Z,19.8
2017-02-24T08:40:40.685Z,19.8
2017-02-24T08:43:13.392Z,19.8
2017-02-24T08:45:46.117Z,19.9
2017-02-24T08:48:18.778Z,19.9
2017-02-24T08:50:51.253Z,19.9
2017-02-24T08:53:24.765Z,19.9
2017-02-24T08:55:57.257Z,19.9
2017-02-24T08:58:29.754Z,19.9
2017-02-24T09:01:03.085Z,20
2017-02-24T09:03:35.568Z,20
2017-02-24T09:06:08.060Z,20
2017-02-24T09:08:40.972Z,20
2017-02-24T09:11:13.886Z,20
2017-02-24T09:13:46.352Z,20
2017-02-24T09:16:18.857Z,20
2017-02-24T09:18:51.362Z,20
2017-02-24T09:21:23.845Z,19.9
2017-02-24T09:23:56.358Z,20
2017-02-24T09:26:29.251Z,19.9
2017-02-24T09:29:02.264Z,19.9
2017-02-24T09:31:35.155Z,19.9
2017-02-24T09:34:07.643Z,19.9
2017-02-24T09:36:40.136Z,19.9
2017-02-24T09:39:12.625Z,19.9
2017-02-24T09:41:45.113Z,19.9
2017-02-24T09:44:17.601Z,19.9
2017-02-24T09:46:50.097Z,19.9
2017-02-24T09:49:22.581Z,19.9
2017-02-24T09:51:55.061Z,19.9
2017-02-24T09:54:27.548Z,19.9
2017-02-24T09:57:00.052Z,20
2017-02-24T09:59:32.558Z,20
2017-02-24T10:02:05.046Z,20
2017-02-24T10:04:37.548Z,20
2017-02-24T10:07:10.460Z,20
2017-02-24T10:09:42.944Z,20
2017-02-24T10:12:15.872Z,20
2017-02-24T10:14:48.776Z,20
2017-02-24T10:17:21.701Z,20
2017-02-24T10:19:54.620Z,20
2017-02-24T10:22:27.523Z,20
2017-02-24T10:25:00.009Z,20
2017-02-24T10:27:32.923Z,20
2017-02-24T10:30:05.849Z,20
2017-02-24T10:32:38.326Z,20
2017-02-24T10:35:10.842Z,20
2017-02-24T10:37:43.756Z,20
2017-02-24T10:40:16.242Z,20
2017-02-24T10:42:48.732Z,20
2017-02-24T10:45:21.231Z,20
2017-02-24T10:47:53.724Z,20
2017-02-24T10:50:26.200Z,20
2017-02-24T10:52:58.703Z,20
2017-02-24T10:55:31.213Z,20
2017-02-24T10:58:03.725Z,20
2017-02-24T11:00:36.215Z,20
2017-02-24T11:03:08.716Z,20
2017-02-24T11:05:41.241Z,20
2017-02-24T11:08:14.155Z,20
2017-02-24T11:10:46.642Z,20
2017-02-24T11:13:19.538Z,20
2017-02-24T11:15:52.031Z,20.1
2017-02-24T11:18:24.522Z,20.1
2017-02-24T11:20:57.016Z,20.1
2017-02-24T11:23:29.495Z,20.1
2017-02-24T11:26:01.978Z,20.1
2017-02-24T11:28:35.339Z,20.1
2017-02-24T11:31:07.835Z,20.1
2017-02-24T11:33:40.757Z,20.1
2017-02-24T11:36:13.257Z,20.1
2017-02-24T11:38:45.739Z,20.1
2017-02-24T11:41:18.225Z,20.1
2017-02-24T11:43:51.158Z,20.1
2017-02-24T11:46:23.688Z,20.1
2017-02-24T11:48:56.191Z,20.1
2017-02-24T11:51:28.696Z,20.2
2017-02-24T11:54:01.204Z,20.2
2017-02-24T11:56:33.712Z,20.2
2017-02-24T11:59:06.220Z,20.2
2017-02-24T12:01:38.707Z,20.2
2017-02-24T12:04:11.250Z,20.2
2017-02-24T12:06:43.727Z,20.2
2017-02-24T12:09:16.223Z,20.2
2017-02-24T12:11:48.696Z,20.2
2017-02-24T12:14:21.206Z,20.2
2017-02-24T12:16:53.692Z,20.2
2017-02-24T12:19:26.186Z,20.2
2017-02-24T12:21:59.266Z,20.3
2017-02-24T12:24:32.592Z,20.3
2017-02-24T12:27:05.086Z,20.3
2017-02-24T12:29:37.989Z,20.3
2017-02-24T12:32:10.902Z,20.3
2017-02-24T12:34:43.822Z,20.3
2017-02-24T12:37:16.310Z,20.3
2017-02-24T12:39:49.239Z,20.3
2017-02-24T12:42:21.740Z,20.3
2017-02-24T12:44:54.228Z,20.3
2017-02-24T12:47:26.713Z,20.3
2017-02-24T12:49:59.203Z,20.3
2017-02-24T12:52:31.850Z,20.3
2017-02-24T12:55:05.176Z,20.3
2017-02-24T12:57:37.661Z,20.2
2017-02-24T13:00:10.583Z,20.2
2017-02-24T13:02:43.588Z,20.2
2017-02-24T13:05:16.094Z,20.2
2017-02-24T13:07:49.000Z,20.3
2017-02-24T13:10:21.921Z,20.3
2017-02-24T13:12:54.439Z,20.3
2017-02-24T13:15:26.938Z,20.3
2017-02-24T13:17:59.905Z,20.3
2017-02-24T13:20:32.441Z,20.3
2017-02-24T13:23:04.947Z,20.3
2017-02-24T13:25:37.506Z,20.3
2017-02-24T13:28:10.010Z,20.2
2017-02-24T13:30:42.516Z,20.2
2017-02-24T13:33:15.456Z,20.2
2017-02-24T13:35:48.015Z,20.2
2017-02-24T13:38:20.532Z,20.1
2017-02-24T13:40:53.243Z,20.1
2017-02-24T13:43:26.170Z,20.1
2017-02-24T13:45:59.137Z,20.1
2017-02-24T13:48:31.632Z,20
2017-02-24T13:51:04.165Z,20
2017-02-24T13:53:36.718Z,20
2017-02-24T13:56:09.665Z,20
2017-02-24T13:58:42.593Z,20
2017-02-24T14:01:15.510Z,20
2017-02-24T14:03:48.468Z,20
2017-02-24T14:06:21.502Z,20
2017-02-24T14:08:54.072Z,20
2017-02-24T14:11:26.998Z,20
2017-02-24T14:13:59.927Z,20
2017-02-24T14:16:32.433Z,20
2017-02-24T14:19:04.940Z,20
2017-02-24T14:21:37.458Z,20
2017-02-24T14:24:09.997Z,20.1
2017-02-24T14:26:42.896Z,20.1
2017-02-24T14:29:15.856Z,20.1
2017-02-24T14:31:48.363Z,20.1
2017-02-24T14:34:20.883Z,20.1
2017-02-24T14:36:53.458Z,20.1
2017-02-24T14:39:26.803Z,20.1
2017-02-24T14:41:59.312Z,20.1
2017-02-24T14:44:32.237Z,20.1
2017-02-24T14:47:04.730Z,20
2017-02-24T14:49:37.241Z,20
2017-02-24T14:52:09.822Z,20
2017-02-24T14:54:42.355Z,20
2017-02-24T14:57:14.859Z,20
2017-02-24T14:59:47.357Z,19.9
2017-02-24T15:02:20.317Z,19.9
2017-02-24T15:04:52.816Z,19.9
2017-02-24T15:07:25.308Z,19.8
2017-02-24T15:09:58.281Z,19.8
2017-02-24T15:12:30.773Z,19.7
2017-02-24T15:15:03.706Z,19.7
2017-02-24T15:17:36.231Z,19.6
2017-02-24T15:20:09.781Z,19.6
2017-02-24T15:22:42.376Z,19.6
2017-02-24T15:25:14.930Z,19.5
2017-02-24T15:27:47.428Z,19.5
2017-02-24T15:30:19.946Z,19.4
2017-02-24T15:32:52.429Z,19.4
2017-02-24T15:35:24.943Z,19.4
2017-02-24T15:37:57.439Z,19.3
2017-02-24T15:40:30.349Z,19.3
2017-02-24T15:43:02.869Z,19.3
2017-02-24T15:45:35.416Z,19.2
2017-02-24T15:48:07.904Z,19.2
2017-02-24T15:50:40.438Z,19.2
2017-02-24T15:53:12.929Z,19.1
2017-02-24T15:55:45.408Z,19.1
2017-02-24T15:58:17.902Z,19
2017-02-24T16:00:50.479Z,19
2017-02-24T16:03:23.384Z,19
2017-02-24T16:05:55.882Z,19
2017-02-24T16:08:28.785Z,19
2017-02-24T16:11:01.704Z,19
2017-02-24T16:13:34.187Z,19
2017-02-24T16:16:06.773Z,19
2017-02-24T16:18:39.679Z,19.1
2017-02-24T16:21:12.184Z,19.1
2017-02-24T16:23:44.667Z,19.1
2017-02-24T16:26:17.617Z,19.1
2017-02-24T16:28:50.090Z,19.2
2017-02-24T16:31:22.617Z,19.2
2017-02-24T16:33:55.526Z,19.2
2017-02-24T16:36:28.610Z,19.3
2017-02-24T16:39:01.541Z,19.3
2017-02-24T16:41:34.038Z,19.4
2017-02-24T16:44:06.952Z,19.4
2017-02-24T16:46:39.458Z,19.4
2017-02-24T16:49:12.115Z,19.5
2017-02-24T16:51:44.615Z,19.5
2017-02-24T16:54:17.098Z,19.6
2017-02-24T16:57:04.786Z,19.6
2017-02-24T16:59:37.470Z,19.6
2017-02-24T17:02:09.961Z,19.7
2017-02-24T17:04:43.805Z,19.7
2017-02-24T17:07:16.337Z,19.7
2017-02-24T17:09:48.846Z,19.7
2017-02-24T17:12:21.345Z,19.8
2017-02-24T17:14:53.841Z,19.8
2017-02-24T17:17:26.812Z,19.8
2017-02-24T17:19:59.319Z,19.8
2017-02-24T17:22:31.912Z,19.8
2017-02-24T17:25:04.399Z,19.9
2017-02-24T17:27:37.312Z,19.9
2017-02-24T17:30:09.798Z,19.9
2017-02-24T17:32:42.312Z,19.9
2017-02-24T17:35:14.821Z,19.9
2017-02-24T17:37:47.735Z,19.9
2017-02-24T17:40:20.262Z,19.9
2017-02-24T17:42:52.750Z,19.9
2017-02-24T17:45:26.087Z,19.9
2017-02-24T17:47:59.011Z,19.9
2017-02-24T17:50:31.930Z,19.9
2017-02-24T17:53:04.877Z,19.9
2017-02-24T17:55:37.363Z,20
2017-02-24T17:58:09.864Z,20
2017-02-24T18:00:42.351Z,20
2017-02-24T18:03:14.882Z,20
2017-02-24T18:05:47.382Z,20
2017-02-24T18:08:20.084Z,20.1
2017-02-24T18:10:52.572Z,20.1
2017-02-24T18:13:25.485Z,20.1
2017-02-24T18:15:57.971Z,20.1
2017-02-24T18:18:30.454Z,20.1
2017-02-24T18:21:02.965Z,20.1
2017-02-24T18:23:35.877Z,20.1
2017-02-24T18:26:08.801Z,20.2
2017-02-24T18:28:41.312Z,20.2
2017-02-24T18:31:13.807Z,20.2
2017-02-24T18:33:46.297Z,20.2
2017-02-24T18:36:19.259Z,20.2
2017-02-24T18:38:52.232Z,20.2
2017-02-24T18:41:24.731Z,20.2
2017-02-24T18:43:57.244Z,20.2
2017-02-24T18:46:29.721Z,20.2
2017-02-24T18:49:02.192Z,20.2
2017-02-24T18:51:34.686Z,20.2
2017-02-24T18:54:07.187Z,20.2
2017-02-24T18:56:39.682Z,20.2
2017-02-24T18:59:12.591Z,20.2
2017-02-24T19:01:45.125Z,20.2
2017-02-24T19:04:17.595Z,20.2
2017-02-24T19:06:50.520Z,20.2
2017-02-24T19:09:23.004Z,20.2
2017-02-24T19:11:55.501Z,20.2
2017-02-24T19:14:27.995Z,20.2
2017-02-24T19:17:00.471Z,20.2
2017-02-24T19:19:33.397Z,20.2
2017-02-24T19:22:05.893Z,20.2
2017-02-24T19:24:38.568Z,20.2
2017-02-24T19:27:11.048Z,20.2
2017-02-24T19:29:43.548Z,20.2
2017-02-24T19:32:16.458Z,20.2
2017-02-24T19:34:48.945Z,20.2
2017-02-24T19:37:21.418Z,20.2
2017-02-24T19:39:53.922Z,20.2
2017-02-24T19:42:26.403Z,20.2
2017-02-24T19:44:59.118Z,20.2
2017-02-24T19:47:31.655Z,20.3
2017-02-24T19:50:04.158Z,20.3
2017-02-24T19:52:37.106Z,20.3
2017-02-24T19:55:10.019Z,20.3
2017-02-24T19:57:42.937Z,20.3
2017-02-24T20:00:15.843Z,20.3
2017-02-24T20:02:48.350Z,20.3
2017-02-24T20:05:20.856Z,20.3
2017-02-24T20:07:53.365Z,20.3
2017-02-24T20:10:25.892Z,20.2
2017-02-24T20:12:58.391Z,20.2
2017-02-24T20:15:30.904Z,20.2
2017-02-24T20:18:03.395Z,20.2
2017-02-24T20:20:36.318Z,20.2
2017-02-24T20:23:09.454Z,20.2
2017-02-24T20:25:42.374Z,20.2
2017-02-24T20:28:14.862Z,20.2
2017-02-24T20:30:47.344Z,20.2
2017-02-24T20:33:19.832Z,20.2
2017-02-24T20:35:52.323Z,20.2
2017-02-24T20:38:24.817Z,20.2
2017-02-24T20:40:57.314Z,20.2
2017-02-24T20:43:29.821Z,20.2
2017-02-24T20:46:02.743Z,20.2
2017-02-24T20:48:35.258Z,20.2
2017-02-24T20:51:08.149Z,20.2
2017-02-24T20:53:40.650Z,20.2
2017-02-24T20:56:13.168Z,20.2
2017-02-24T20:58:45.660Z,20.2
2017-02-24T21:01:18.138Z,20.2
2017-02-24T21:03:50.629Z,20.2
2017-02-24T21:06:23.115Z,20.2
2017-02-24T21:08:55.622Z,20.2
2017-02-24T21:11:28.129Z,20.2
2017-02-24T21:14:00.632Z,20.2
2017-02-24T21:16:33.557Z,20.2
2017-02-24T21:19:06.055Z,20.1
2017-02-24T21:21:38.544Z,20.1
2017-02-24T21:24:11.463Z,20.1
2017-02-24T21:26:43.972Z,20.1
2017-02-24T21:29:16.481Z,20.1
2017-02-24T21:31:48.962Z,20.1
2017-02-24T21:34:21.439Z,20.1
2017-02-24T21:36:53.941Z,20.1
2017-02-24T21:39:26.419Z,20.1
2017-02-24T21:41:59.751Z,20.1
2017-02-24T21:44:32.660Z,20.1
2017-02-24T21:47:05.586Z,20.1
2017-02-24T21:49:38.079Z,20.1
2017-02-24T21:52:10.568Z,20.1
2017-02-24T21:54:43.053Z,20.1
2017-02-24T21:57:15.568Z,20.1
2017-02-24T21:59:48.040Z,20.1
2017-02-24T22:02:20.533Z,20.1
2017-02-24T22:04:53.023Z,20.1
2017-02-24T22:07:26.531Z,20.1
2017-02-24T22:09:59.441Z,20.1
2017-02-24T22:12:32.351Z,20.1
2017-02-24T22:15:04.835Z,20.1
2017-02-24T22:17:37.309Z,20.1
2017-02-24T22:20:09.808Z,20.1
2017-02-24T22:22:42.293Z,20.1
2017-02-24T22:25:15.194Z,20.1
2017-02-24T22:27:48.110Z,20.1
2017-02-24T22:30:20.613Z,20.1
2017-02-24T22:32:53.085Z,20.1
2017-02-24T22:35:25.569Z,20.1
2017-02-24T22:37:58.900Z,20.1
2017-02-24T22:40:31.394Z,20.1
2017-02-24T22:43:03.888Z,20.1
2017-02-24T22:45:36.398Z,20.1
2017-02-24T22:48:08.898Z,20.1
2017-02-24T22:50:41.381Z,20.1
2017-02-24T22:53:13.904Z,20.1
2017-02-24T22:55:46.400Z,20.1
2017-02-24T22:58:19.759Z,20.1
2017-02-24T23:00:52.655Z,20.1
2017-02-24T23:03:25.589Z,20.1
2017-02-24T23:05:58.494Z,20.1
2017-02-24T23:08:30.997Z,20.1
2017-02-24T23:11:03.483Z,20.1
2017-02-24T23:13:36.387Z,20.1
2017-02-24T23:16:08.896Z,20.1
2017-02-24T23:18:41.393Z,20.1
2017-02-24T23:21:13.903Z,20.1
2017-02-24T23:23:46.411Z,20.1
2017-02-24T23:26:18.908Z,20.1
2017-02-24T23:28:51.414Z,20.1
2017-02-24T23:31:23.913Z,20.1
2017-02-24T23:33:56.396Z,20.1
2017-02-24T23:36:29.299Z,20.1
2017-02-24T23:39:01.811Z,20.1
2017-02-24T23:41:34.719Z,20.1
2017-02-24T23:44:07.230Z,20.1
2017-02-24T23:46:39.720Z,20.1
2017-02-24T23:49:12.215Z,20.1
2017-02-24T23:51:44.719Z,20.1
2017-02-24T23:54:18.061Z,20.1
2017-02-24T23:56:50.962Z,20.1
2017-02-24T23:59:23.464Z,20.1
